Nearby METAR Reports

 

KMTN - Baltimore/Martin, Maryland, USA
Distance from station: SSE 8mi, 13km
Updated: Fri, 28-Nov-2014 3:15am EST
Clear
Clear
 Wind from W
Wind: W 6 mph , 9 km/h
Temperature: 32°F , 0°C
Wind Chill: 26°F , -3°C
Dew Point: 27°F , -3°C
Humidity: 80%
Barometer: 30.20 inHg , 1022.7 hPa
Clouds: Clear
Visibility: 10 miles , 16 km
2014/11/28 08:15 KMTN 280815Z AUTO 28005KT 10SM CLR 00/M03 A3020 RMK AO2
KDMH - Baltimore/Dwntwn, Maryland, USA
Distance from station: SW 12mi, 19km
Updated: Fri, 28-Nov-2014 2:54am EST

 
Temperature: 34°F , 1°C
Dew Point: 21°F , -6°C
Humidity: 60%
Barometer: 30.18 inHg , 1022 hPa
2014/11/28 07:54 KDMH 280754Z AUTO 01/M06 A3018 RMK AO1 SLP218 T00111061
 
KBWI - Balto/Wash Intl, Maryland, USA
Distance from station: SSW 20mi, 33km
Updated: Fri, 28-Nov-2014 2:54am EST
Partly cloudy
Partly cloudy
 Wind from W
Wind: W 6 mph , 9 km/h
Temperature: 32°F , 0°C
Wind Chill: 26°F , -3°C
Dew Point: 21°F , -6°C
Humidity: 64%
Barometer: 30.18 inHg , 1022 hPa
Clouds: Partly cloudy
Visibility: 10 miles , 16 km
Cloud details: Few Clouds 4300 ft
Partly cloudy 9000 ft
2014/11/28 07:54 KBWI 280754Z 28005KT 10SM FEW043 SCT090 00/M06 A3018 RMK AO2 SLP219 T00001056
KDMW - Carroll Cnty, Maryland, USA
Distance from station: WNW 30mi, 48km
Updated: Fri, 28-Nov-2014 3:10am EST
Partly cloudy
Partly cloudy
 Wind from WNW
Wind: WNW 12 mph , 19 km/h
Temperature: 32°F , 0°C
Wind Chill: 23°F , -5°C
Dew Point: 25°F , -4°C
Humidity: 75%
Barometer: 30.15 inHg , 1021 hPa
Clouds: Partly cloudy
Visibility: 10 miles , 16 km
Cloud details: Partly cloudy 3900 ft
2014/11/28 08:10 KDMW 280810Z AUTO 29010KT 10SM SCT039 00/M04 A3015 RMK AO2
 
KNAK - Annapolis/Naval, Maryland, USA
Distance from station: S 30mi, 48km
Updated: Fri, 28-Nov-2014 2:54am EST
Clear
Clear
 Wind from W
Wind: W 7 mph , 11 km/h
Temperature: 36°F , 2°C
Wind Chill: 30°F , -1°C
Dew Point: 23°F , -5°C
Humidity: 60%
Barometer: 30.18 inHg , 1022 hPa
Clouds: Clear
Visibility: 10 miles , 16 km
2014/11/28 07:54 KNAK 280754Z AUTO 28006KT 10SM CLR 02/M05 A3018 RMK AO2 SLP223 T00171050 $
KW29 - Stevensville, Maryland, USA
Distance from station: SSE 31mi, 50km
Updated: Fri, 28-Nov-2014 3:13am EST

 Wind from NW
Wind: NW 8 mph , 13 km/h
Temperature: 36°F , 2°C
Wind Chill: 30°F , -1°C
Dew Point: 23°F , -5°C
Humidity: 60%
Barometer: 30.19 inHg , 1022.4 hPa
Visibility: 10 miles , 16 km
2014/11/28 08:13 KW29 280813Z AUTO 31007KT 10SM 02/M05 A3019 RMK AO1
 
KCGS - College Park, Maryland, USA
Distance from station: SW 38mi, 61km
Updated: Fri, 28-Nov-2014 3:10am EST
Clear
Clear
 Wind from W
Wind: W 5 mph , 7 km/h
Temperature: 34°F , 1°C
Wind Chill: 29°F , -2°C
Dew Point: 23°F , -5°C
Humidity: 65%
Barometer: 30.21 inHg , 1023 hPa
Clouds: Clear
Visibility: 10 miles , 16 km
2014/11/28 08:10 KCGS 280810Z AUTO 28004KT 10SM CLR 01/M05 A3021 RMK AO1
KGAI - Gaithersburg, Maryland, USA
Distance from station: WSW 40mi, 65km
Updated: Fri, 28-Nov-2014 3:15am EST
Clear
Clear
 Wind from NW
Wind: NW 10 mph , 17 km/h, Gust: 16 mph , 26 km/h
Temperature: 30°F , -1°C
Wind Chill: 21°F , -6°C
Dew Point: 19°F , -7°C
Humidity: 64%
Barometer: 30.22 inHg , 1023.4 hPa
Clouds: Clear
Visibility: 10 miles , 16 km
2014/11/28 08:15 KGAI 280815Z 31009G14KT 10SM CLR M01/M07 A3022 RMK AO1
 
KTHV - York, Pennsylvania, USA
Distance from station: NNW 40mi, 65km
Updated: Fri, 28-Nov-2014 2:53am EST
Clear
Clear
 Wind from WSW
Wind: WSW 5 mph , 7 km/h
Temperature: 28°F , -2°C
Wind Chill: 22°F , -6°C
Dew Point: 21°F , -6°C
Humidity: 74%
Barometer: 30.15 inHg , 1021 hPa
Clouds: Clear
Visibility: 10 miles , 16 km
2014/11/28 07:53 KTHV 280753Z AUTO 25004KT 10SM CLR M02/M06 A3015 RMK AO2 SLP217 T10171061
KFDK - Frederick, Maryland, USA
Distance from station: W 47mi, 75km
Updated: Fri, 28-Nov-2014 3:10am EST
Clear
Clear
 Wind from WNW
Wind: WNW 13 mph , 20 km/h, Gust: 26 mph , 43 km/h
Temperature: 34°F , 1°C
Wind Chill: 25°F , -4°C
Dew Point: 21°F , -6°C
Humidity: 60%
Barometer: 30.22 inHg , 1023.4 hPa
Clouds: Clear
Visibility: 10 miles , 16 km
2014/11/28 08:10 KFDK 280810Z AUTO 29011G23KT 10SM CLR 01/M06 A3022 RMK AO2
 
KESN - Easton/Newnam, Maryland, USA
Distance from station: SSE 48mi, 78km
Updated: Fri, 28-Nov-2014 3:27am EST
Partly cloudy
Partly cloudy
 Wind from NNW
Wind: NNW 10 mph , 17 km/h, Gust: 17 mph , 28 km/h
Temperature: 37°F , 3°C
Wind Chill: 30°F , -1°C
Dew Point: 27°F , -3°C
Humidity: 65%
Barometer: 30.21 inHg , 1023 hPa
Clouds: Partly cloudy
Visibility: 10 miles , 16 km
Cloud details: Partly cloudy 5000 ft
2014/11/28 08:27 KESN 280827Z AUTO 33009G15KT 10SM SCT050 03/M03 A3021 RMK AO2 T00261031
KDCA - Washington/Natl, Washington D.c., USA
Distance from station: SW 49mi, 79km
Updated: Fri, 28-Nov-2014 2:52am EST
Clear
Clear
 Wind from W
Wind: W 7 mph , 11 km/h
Temperature: 36°F , 2°C
Wind Chill: 30°F , -1°C
Dew Point: 21°F , -6°C
Humidity: 56%
Barometer: 30.22 inHg , 1023.4 hPa
Clouds: Clear
Visibility: 10 miles , 16 km
2014/11/28 07:52 KDCA 280752Z 27006KT 10SM CLR 02/M06 A3022 RMK AO2 SLP233 T00221061
 
KLNS - Lancaster, Pennsylvania, USA
Distance from station: N 49mi, 79km
Updated: Fri, 28-Nov-2014 2:53am EST
Clear
Clear
 Wind from WSW
Wind: WSW 5 mph , 7 km/h
Temperature: 30°F , -1°C
Wind Chill: 25°F , -4°C
Dew Point: 21°F , -6°C
Humidity: 69%
Barometer: 30.13 inHg , 1020.3 hPa
Clouds: Clear
Visibility: 10 miles , 16 km
2014/11/28 07:53 KLNS 280753Z 25004KT 10SM CLR M01/M06 A3013 RMK AO2 SLP208 T10111061
KILG - Wilmington, Delaware, USA
Distance from station: ENE 50mi, 81km
Updated: Fri, 28-Nov-2014 2:51am EST
Overcast
Overcast
 Wind from WNW
Wind: WNW 13 mph , 20 km/h
Temperature: 34°F , 1°C
Wind Chill: 25°F , -4°C
Dew Point: 27°F , -3°C
Humidity: 75%
Barometer: 30.15 inHg , 1021 hPa
Clouds: Overcast
Visibility: 10 miles , 16 km
Cloud details: Mostly cloudy 6000 ft
Overcast 9000 ft
2014/11/28 07:51 KILG 280751Z AUTO 30011KT 10SM BKN060 OVC090 01/M03 A3015 RMK AO2 SLP211 T00111033